Time;durP1;ratioP1;P1;durP2;ratioP2;P2;SDS_P1;SDS_P2;PMS_P1;PMS_P2;Temp;Humidity;BMP_temperature;BMP_pressure;BME280_temperature;BME280_humidity;BME280_pressure;Samples;Min_cycle;Max_cycle;Signal;HPM_P1;HPM_P2
2023/12/31 09:55:14;;;;;;;1.35;0.95;;;;;;;;;;5019460;27;91972;-76
2023/12/31 09:57:42;;;;;;;3.03;0.70;;;;;;;;;;5013530;27;92515;-75
2023/12/31 10:00:10;;;;;;;0.98;0.80;;;;;;;;;;5021379;27;91808;-75
2023/12/31 10:02:36;;;;;;;3.42;0.93;;;;;;;;;;5017982;27;92195;-75
2023/12/31 10:05:04;;;;;;;0.73;0.73;;;;;;;;;;5020257;27;92958;-75
2023/12/31 10:07:31;;;;;;;0.63;0.45;;;;;;;;;;5020942;27;91789;-75
2023/12/31 10:10:00;;;;;;;1.60;0.90;;;;;;;;;;5020814;27;91893;-74
2023/12/31 10:12:27;;;;;;;2.80;0.43;;;;;;;;;;5021125;28;95774;-75
2023/12/31 10:14:54;;;;;;;0.40;0.40;;;;;;;;;;5015770;27;91850;-75
2023/12/31 10:17:21;;;;;;;0.50;0.50;;;;;;;;;;5021824;27;94075;-75
2023/12/31 10:19:47;;;;;;;0.82;0.55;;;;;;;;;;5024074;27;92235;-75
2023/12/31 10:22:14;;;;;;;0.50;0.50;;;;;;;;;;5019537;27;92263;-75
2023/12/31 10:24:44;;;;;;;0.80;0.50;;;;;;;;;;5011940;27;92992;-75
2023/12/31 10:27:11;;;;;;;0.73;0.40;;;;;;;;;;5026753;28;92293;-75
2023/12/31 10:29:37;;;;;;;2.67;0.32;;;;;;;;;;5021201;28;92214;-75
2023/12/31 10:32:04;;;;;;;0.45;0.45;;;;;;;;;;5016248;27;92067;-75
2023/12/31 10:34:31;;;;;;;0.68;0.52;;;;;;;;;;5013657;27;91815;-73
2023/12/31 10:37:03;;;;;;;0.43;0.43;;;;;;;;;;5017743;28;91594;-74
2023/12/31 10:39:29;;;;;;;;;;;;;;;;;;5013899;27;92480;-74
2023/12/31 10:41:58;;;;;;;3.20;0.65;;;;;;;;;;5011677;27;120788;-74
2023/12/31 10:44:26;;;;;;;0.90;0.40;;;;;;;;;;5018147;27;92875;-74
2023/12/31 10:46:52;;;;;;;0.98;0.45;;;;;;;;;;5017020;27;92248;-74
2023/12/31 10:49:21;;;;;;;0.30;0.30;;;;;;;;;;5018302;27;94131;-75
2023/12/31 10:51:51;;;;;;;9.75;0.38;;;;;;;;;;5019753;27;92122;-75
2023/12/31 10:54:24;;;;;;;1.17;0.20;;;;;;;;;;5013346;27;92127;-74
2023/12/31 10:56:51;;;;;;;2.65;0.60;;;;;;;;;;5012440;28;91841;-75
2023/12/31 10:59:17;;;;;;;0.65;0.30;;;;;;;;;;5015386;27;94676;-77
2023/12/31 11:01:44;;;;;;;1.90;0.50;;;;;;;;;;5010679;27;92474;-75
2023/12/31 11:04:11;;;;;;;8.65;1.38;;;;;;;;;;5023070;27;91997;-76
2023/12/31 11:06:38;;;;;;;1.45;0.50;;;;;;;;;;5001839;28;92105;-76
2023/12/31 11:09:05;;;;;;;2.65;0.70;;;;;;;;;;5000051;28;92702;-76
2023/12/31 11:11:32;;;;;;;7.20;0.60;;;;;;;;;;5000544;28;91911;-74
2023/12/31 11:13:59;;;;;;;0.52;0.40;;;;;;;;;;4999332;28;92086;-73
2023/12/31 11:16:29;;;;;;;0.77;0.60;;;;;;;;;;5010818;28;91969;-74
2023/12/31 11:19:04;;;;;;;0.57;0.38;;;;;;;;;;4997657;28;93309;-74
2023/12/31 11:21:38;;;;;;;0.43;0.30;;;;;;;;;;4999578;28;92115;-77
2023/12/31 11:24:08;;;;;;;1.27;0.50;;;;;;;;;;5007103;28;92795;-74
2023/12/31 11:26:34;;;;;;;4.72;1.00;;;;;;;;;;5001137;28;92049;-74
2023/12/31 11:29:01;;;;;;;36.25;1.20;;;;;;;;;;5009140;28;92080;-76
2023/12/31 11:31:28;;;;;;;2.28;0.60;;;;;;;;;;5004118;28;92691;-76
2023/12/31 11:33:54;;;;;;;0.40;0.40;;;;;;;;;;5007901;28;91982;-77
2023/12/31 11:36:21;;;;;;;1.75;0.63;;;;;;;;;;4997586;28;92083;-79
2023/12/31 11:38:53;;;;;;;4.25;0.77;;;;;;;;;;4997301;28;93750;-78
2023/12/31 11:41:20;;;;;;;0.40;0.30;;;;;;;;;;4996120;28;91988;-78
2023/12/31 11:43:46;;;;;;;0.82;0.43;;;;;;;;;;5002221;28;92112;-76
2023/12/31 11:46:33;;;;;;;1.13;0.40;;;;;;;;;;5001639;28;92245;-76
2023/12/31 11:49:00;;;;;;;19.27;0.88;;;;;;;;;;5012832;28;92428;-76
2023/12/31 11:51:46;;;;;;;4.13;0.70;;;;;;;;;;5001419;28;93016;-75
2023/12/31 11:54:17;;;;;;;2.33;0.50;;;;;;;;;;5004532;28;91599;-77
2023/12/31 11:56:45;;;;;;;1.60;0.50;;;;;;;;;;4997618;28;92313;-77
2023/12/31 11:59:11;;;;;;;8.88;0.75;;;;;;;;;;5004095;28;93236;-74
2023/12/31 12:01:40;;;;;;;3.15;0.47;;;;;;;;;;5022721;28;92068;-81
2023/12/31 12:04:07;;;;;;;6.00;0.55;;;;;;;;;;5021973;28;93088;-82
2023/12/31 12:06:34;;;;;;;1.48;0.45;;;;;;;;;;5015896;28;91983;-81
2023/12/31 12:09:00;;;;;;;1.65;0.45;;;;;;;;;;5012851;28;92044;-80
2023/12/31 12:11:27;;;;;;;1.42;0.20;;;;;;;;;;5011234;28;93254;-79
2023/12/31 12:13:53;;;;;;;9.07;0.40;;;;;;;;;;5014076;28;92606;-79
2023/12/31 12:16:20;;;;;;;2.30;0.57;;;;;;;;;;5011319;28;92126;-79
2023/12/31 12:18:56;;;;;;;2.03;0.47;;;;;;;;;;5012428;28;91966;-79
2023/12/31 12:21:23;;;;;;;2.28;0.55;;;;;;;;;;5014083;28;92121;-77
2023/12/31 12:23:49;;;;;;;1.20;0.60;;;;;;;;;;5025429;28;92564;-76
2023/12/31 12:26:16;;;;;;;1.77;0.70;;;;;;;;;;5013973;28;93133;-76
2023/12/31 12:28:44;;;;;;;5.40;0.77;;;;;;;;;;5005498;28;92159;-76
2023/12/31 12:31:13;;;;;;;9.57;0.70;;;;;;;;;;5005830;28;93291;-75
2023/12/31 12:33:41;;;;;;;5.20;0.68;;;;;;;;;;5007987;28;92037;-75
2023/12/31 12:36:08;;;;;;;3.67;0.65;;;;;;;;;;4996950;28;92066;-75
2023/12/31 12:38:36;;;;;;;3.80;0.88;;;;;;;;;;4996265;28;92252;-74
2023/12/31 12:41:04;;;;;;;1.52;0.68;;;;;;;;;;4994723;28;91985;-75
2023/12/31 12:43:31;;;;;;;1.02;0.50;;;;;;;;;;4998086;28;92901;-74
2023/12/31 12:46:01;;;;;;;2.60;0.77;;;;;;;;;;4995024;28;92591;-75
2023/12/31 12:48:28;;;;;;;3.97;0.60;;;;;;;;;;5004678;28;92144;-74
2023/12/31 12:50:54;;;;;;;4.00;0.70;;;;;;;;;;5013878;28;92172;-74
2023/12/31 12:53:23;;;;;;;4.32;0.85;;;;;;;;;;5001162;28;92158;-74
2023/12/31 12:55:49;;;;;;;1.45;0.65;;;;;;;;;;5008637;28;92020;-74
2023/12/31 12:58:16;;;;;;;2.25;0.73;;;;;;;;;;4999272;28;91866;-75
2023/12/31 13:00:42;;;;;;;2.85;1.10;;;;;;;;;;5002121;28;92027;-74
2023/12/31 13:03:09;;;;;;;2.28;0.40;;;;;;;;;;5005394;28;93192;-75
2023/12/31 13:05:35;;;;;;;14.40;0.63;;;;;;;;;;5006243;28;92056;-75
2023/12/31 13:08:03;;;;;;;2.20;0.70;;;;;;;;;;5006030;28;92339;-74
2023/12/31 13:10:30;;;;;;;4.43;0.60;;;;;;;;;;5006880;28;92102;-75
2023/12/31 13:12:56;;;;;;;1.75;0.60;;;;;;;;;;5001532;28;91887;-74
2023/12/31 13:15:23;;;;;;;2.47;0.40;;;;;;;;;;5006067;28;92368;-74
2023/12/31 13:17:49;;;;;;;2.60;0.90;;;;;;;;;;5001254;28;91840;-74
2023/12/31 13:20:16;;;;;;;2.55;0.70;;;;;;;;;;4997717;28;92381;-75
2023/12/31 13:22:44;;;;;;;2.55;0.75;;;;;;;;;;4996772;28;94383;-75
2023/12/31 13:25:10;;;;;;;2.05;0.90;;;;;;;;;;5001687;28;92147;-75
2023/12/31 13:27:37;;;;;;;0.55;0.50;;;;;;;;;;5008996;28;92129;-77
2023/12/31 13:30:03;;;;;;;6.47;1.10;;;;;;;;;;4996399;28;91902;-76
2023/12/31 13:32:30;;;;;;;1.98;0.60;;;;;;;;;;5000998;28;92871;-75
2023/12/31 13:34:56;;;;;;;3.22;1.08;;;;;;;;;;5004164;28;91834;-76
2023/12/31 13:37:23;;;;;;;3.95;1.10;;;;;;;;;;5011429;28;92182;-76
2023/12/31 13:39:49;;;;;;;7.15;1.23;;;;;;;;;;4997832;28;91872;-76
2023/12/31 13:42:16;;;;;;;2.63;1.52;;;;;;;;;;5007169;28;92042;-75
2023/12/31 13:44:42;;;;;;;5.85;1.52;;;;;;;;;;4995417;28;93346;-76
2023/12/31 13:47:09;;;;;;;5.10;2.00;;;;;;;;;;5002599;28;91838;-76
2023/12/31 13:49:39;;;;;;;4.03;2.45;;;;;;;;;;4998192;28;91980;-76
2023/12/31 13:52:06;;;;;;;7.55;2.90;;;;;;;;;;5013690;28;92331;-73
2023/12/31 13:54:32;;;;;;;7.72;2.35;;;;;;;;;;5003051;28;92310;-74
2023/12/31 13:56:58;;;;;;;5.32;1.95;;;;;;;;;;4997634;28;92127;-75
2023/12/31 13:59:25;;;;;;;3.65;1.95;;;;;;;;;;5003618;28;93451;-75
2023/12/31 14:01:52;;;;;;;3.85;1.92;;;;;;;;;;4997300;28;91972;-75
2023/12/31 14:04:18;;;;;;;7.65;2.60;;;;;;;;;;4999793;28;92229;-75
2023/12/31 14:06:45;;;;;;;7.72;2.10;;;;;;;;;;5001760;28;92213;-75
2023/12/31 14:09:11;;;;;;;9.48;2.05;;;;;;;;;;5013782;28;92416;-75
2023/12/31 14:11:38;;;;;;;6.43;2.33;;;;;;;;;;5001111;28;92232;-75
2023/12/31 14:14:05;;;;;;;7.68;2.10;;;;;;;;;;5004490;28;92293;-75
2023/12/31 14:16:32;;;;;;;3.58;1.90;;;;;;;;;;5001545;28;92893;-75
2023/12/31 14:18:58;;;;;;;3.85;1.65;;;;;;;;;;4995341;28;91929;-75
2023/12/31 14:21:25;;;;;;;6.60;1.88;;;;;;;;;;5001464;28;93185;-75
2023/12/31 14:23:51;;;;;;;3.85;1.90;;;;;;;;;;4996397;28;91783;-75
2023/12/31 14:26:17;;;;;;;2.90;1.77;;;;;;;;;;5004723;28;92039;-75
2023/12/31 14:28:44;;;;;;;8.48;1.85;;;;;;;;;;5002704;28;94479;-75
2023/12/31 14:31:11;;;;;;;4.93;2.13;;;;;;;;;;5011315;28;92885;-75
2023/12/31 14:33:37;;;;;;;2.95;1.55;;;;;;;;;;5003647;28;92036;-75
2023/12/31 14:36:04;;;;;;;4.60;1.65;;;;;;;;;;5000908;28;91269;-75
2023/12/31 14:38:31;;;;;;;6.80;1.80;;;;;;;;;;5004654;28;91931;-75
2023/12/31 14:40:57;;;;;;;3.00;1.50;;;;;;;;;;4983040;28;94587;-75
2023/12/31 14:43:27;;;;;;;3.80;1.70;;;;;;;;;;5005195;28;94306;-75
2023/12/31 14:45:54;;;;;;;3.88;1.85;;;;;;;;;;5004842;28;91874;-75
2023/12/31 14:48:21;;;;;;;4.85;1.92;;;;;;;;;;5015892;28;92359;-75
2023/12/31 14:50:47;;;;;;;6.53;1.65;;;;;;;;;;5003355;28;92182;-75
2023/12/31 14:53:14;;;;;;;5.60;1.90;;;;;;;;;;5005127;28;92098;-75
2023/12/31 14:55:41;;;;;;;5.28;1.73;;;;;;;;;;5006276;28;92224;-75
2023/12/31 14:58:07;;;;;;;3.50;2.03;;;;;;;;;;5001712;28;91653;-75
2023/12/31 15:00:36;;;;;;;4.55;2.00;;;;;;;;;;4999413;28;92420;-75
2023/12/31 15:03:02;;;;;;;5.93;2.35;;;;;;;;;;4998876;28;93099;-75
2023/12/31 15:05:34;;;;;;;8.05;1.83;;;;;;;;;;5014206;28;92131;-75
2023/12/31 15:08:02;;;;;;;2.90;1.90;;;;;;;;;;5001373;28;92449;-75
2023/12/31 15:10:29;;;;;;;3.63;1.92;;;;;;;;;;5011851;28;92733;-75
2023/12/31 15:12:58;;;;;;;4.22;1.38;;;;;;;;;;5004715;28;92120;-75
2023/12/31 15:15:24;;;;;;;2.65;1.75;;;;;;;;;;5002432;28;93409;-75
2023/12/31 15:17:51;;;;;;;4.50;1.95;;;;;;;;;;5008202;28;91913;-75
2023/12/31 15:20:17;;;;;;;4.72;1.95;;;;;;;;;;5007103;28;91940;-75
2023/12/31 15:22:44;;;;;;;5.43;1.75;;;;;;;;;;5013871;28;92847;-75
2023/12/31 15:25:10;;;;;;;5.72;2.42;;;;;;;;;;5010115;28;92216;-75
2023/12/31 15:27:37;;;;;;;3.45;1.50;;;;;;;;;;5018844;28;91988;-75
2023/12/31 15:30:06;;;;;;;5.78;2.55;;;;;;;;;;5018957;28;92268;-75
2023/12/31 15:32:34;;;;;;;9.07;2.25;;;;;;;;;;5018453;28;92283;-75
2023/12/31 15:35:00;;;;;;;3.33;1.92;;;;;;;;;;5006895;28;93663;-75
2023/12/31 15:37:28;;;;;;;6.55;2.50;;;;;;;;;;5001795;28;92009;-75
2023/12/31 15:39:55;;;;;;;3.67;2.38;;;;;;;;;;5010039;28;92315;-75
2023/12/31 15:42:22;;;;;;;4.03;2.03;;;;;;;;;;5016854;28;91875;-75
2023/12/31 15:44:50;;;;;;;7.63;3.08;;;;;;;;;;5010199;28;92311;-74
2023/12/31 15:47:17;;;;;;;3.05;1.85;;;;;;;;;;5012716;28;92117;-74
2023/12/31 15:49:43;;;;;;;3.85;1.90;;;;;;;;;;5016719;28;93156;-75
2023/12/31 15:52:10;;;;;;;6.00;2.10;;;;;;;;;;5007082;28;91507;-74
2023/12/31 15:54:36;;;;;;;5.13;2.33;;;;;;;;;;4998474;28;91882;-75
2023/12/31 15:57:03;;;;;;;8.35;2.72;;;;;;;;;;4998812;28;92993;-75
2023/12/31 15:59:29;;;;;;;6.20;1.85;;;;;;;;;;5012974;28;92032;-74
2023/12/31 16:01:57;;;;;;;4.47;2.38;;;;;;;;;;5005964;28;92148;-75
2023/12/31 16:04:26;;;;;;;5.05;2.38;;;;;;;;;;5008625;28;92042;-75
2023/12/31 16:06:53;;;;;;;3.72;1.92;;;;;;;;;;4998707;28;91911;-75
2023/12/31 16:09:19;;;;;;;5.47;2.17;;;;;;;;;;5011602;28;92995;-75
2023/12/31 16:11:46;;;;;;;6.63;2.67;;;;;;;;;;5006996;28;91767;-75
2023/12/31 16:14:12;;;;;;;6.47;2.78;;;;;;;;;;5003417;28;94448;-75
2023/12/31 16:16:39;;;;;;;8.02;2.47;;;;;;;;;;5007510;28;91955;-75
2023/12/31 16:19:05;;;;;;;4.03;1.90;;;;;;;;;;5003258;28;92896;-74
2023/12/31 16:21:32;;;;;;;9.02;2.42;;;;;;;;;;5001119;28;91987;-75
2023/12/31 16:23:58;;;;;;;7.90;2.40;;;;;;;;;;5009094;28;92048;-74
2023/12/31 16:26:25;;;;;;;4.97;2.20;;;;;;;;;;5014098;28;92003;-75
2023/12/31 16:28:51;;;;;;;9.27;2.70;;;;;;;;;;5016212;28;91938;-75
2023/12/31 16:31:18;;;;;;;7.10;2.55;;;;;;;;;;5006222;28;92297;-75
2023/12/31 16:33:44;;;;;;;7.70;2.60;;;;;;;;;;5003984;28;92024;-75
2023/12/31 16:36:11;;;;;;;6.93;2.55;;;;;;;;;;5017787;28;92006;-75
2023/12/31 16:38:37;;;;;;;7.25;2.35;;;;;;;;;;5017857;28;92060;-75
2023/12/31 16:41:04;;;;;;;9.13;2.65;;;;;;;;;;4999880;28;92246;-75
2023/12/31 16:43:30;;;;;;;8.43;2.17;;;;;;;;;;4998410;28;93166;-75
2023/12/31 16:45:58;;;;;;;11.32;2.78;;;;;;;;;;4999479;28;91906;-75
2023/12/31 16:48:24;;;;;;;9.68;2.72;;;;;;;;;;4997551;28;92019;-75
2023/12/31 16:50:52;;;;;;;10.30;2.72;;;;;;;;;;4997790;28;92063;-75
2023/12/31 16:53:18;;;;;;;7.88;2.28;;;;;;;;;;5003171;28;92073;-75
2023/12/31 16:55:45;;;;;;;8.13;2.33;;;;;;;;;;4998016;28;91936;-75
2023/12/31 16:58:11;;;;;;;8.27;1.98;;;;;;;;;;4998068;28;91844;-75
2023/12/31 17:00:38;;;;;;;5.97;2.35;;;;;;;;;;5006093;28;91931;-75
2023/12/31 17:03:04;;;;;;;4.32;2.10;;;;;;;;;;4997437;28;91818;-75
2023/12/31 17:05:31;;;;;;;8.77;2.15;;;;;;;;;;5004450;28;92269;-75
2023/12/31 17:07:58;;;;;;;9.13;3.05;;;;;;;;;;5004687;28;92564;-75
2023/12/31 17:10:24;;;;;;;7.47;2.33;;;;;;;;;;5003067;28;92296;-75
2023/12/31 17:12:51;;;;;;;8.63;2.28;;;;;;;;;;5002932;28;91966;-75
2023/12/31 17:15:21;;;;;;;9.52;2.40;;;;;;;;;;5002998;28;92027;-75
2023/12/31 17:17:47;;;;;;;8.32;2.17;;;;;;;;;;5002019;28;92015;-75
2023/12/31 17:20:15;;;;;;;9.60;2.70;;;;;;;;;;5006573;28;91823;-75
2023/12/31 17:22:41;;;;;;;5.95;2.42;;;;;;;;;;4997436;28;93056;-75
2023/12/31 17:25:08;;;;;;;7.60;2.53;;;;;;;;;;5002001;28;92056;-75
2023/12/31 17:27:35;;;;;;;7.15;2.30;;;;;;;;;;5016326;28;92899;-75
2023/12/31 17:30:01;;;;;;;8.98;2.95;;;;;;;;;;5009321;28;91952;-75
2023/12/31 17:32:28;;;;;;;11.60;2.30;;;;;;;;;;5015173;28;91947;-75
2023/12/31 17:34:55;;;;;;;7.90;2.47;;;;;;;;;;5018095;28;91590;-75
2023/12/31 17:37:21;;;;;;;7.93;3.25;;;;;;;;;;5001171;28;92236;-75
2023/12/31 17:39:47;;;;;;;10.75;2.83;;;;;;;;;;5005579;28;92004;-75
2023/12/31 17:42:14;;;;;;;13.73;2.58;;;;;;;;;;5002541;28;92001;-75
2023/12/31 17:44:40;;;;;;;11.82;2.83;;;;;;;;;;5017706;28;91946;-75
2023/12/31 17:47:07;;;;;;;11.15;2.90;;;;;;;;;;5017120;28;92490;-75
2023/12/31 17:49:34;;;;;;;9.48;2.88;;;;;;;;;;5016280;28;92222;-75
2023/12/31 17:52:00;;;;;;;10.40;2.67;;;;;;;;;;5015611;28;92088;-75
2023/12/31 17:54:27;;;;;;;7.90;2.25;;;;;;;;;;4997715;28;93356;-75
2023/12/31 17:56:53;;;;;;;5.82;2.33;;;;;;;;;;5010177;28;91838;-75
2023/12/31 17:59:19;;;;;;;8.00;2.38;;;;;;;;;;5007798;28;91830;-75
2023/12/31 18:01:46;;;;;;;8.90;3.05;;;;;;;;;;5003391;28;93008;-74
2023/12/31 18:04:12;;;;;;;11.50;2.70;;;;;;;;;;5016814;28;92556;-75
2023/12/31 18:06:40;;;;;;;7.88;2.20;;;;;;;;;;5010093;28;91981;-75
2023/12/31 18:09:06;;;;;;;4.60;2.20;;;;;;;;;;5016643;28;92284;-75
2023/12/31 18:11:33;;;;;;;5.68;2.53;;;;;;;;;;4997911;28;92344;-75
2023/12/31 18:13:59;;;;;;;10.00;2.45;;;;;;;;;;5006788;28;91949;-74
2023/12/31 18:16:25;;;;;;;7.57;3.17;;;;;;;;;;5006017;28;93315;-76
2023/12/31 18:18:52;;;;;;;9.43;2.65;;;;;;;;;;5015179;28;91907;-75
2023/12/31 18:21:18;;;;;;;10.45;2.70;;;;;;;;;;5006371;28;91958;-75
2023/12/31 18:23:45;;;;;;;6.57;2.10;;;;;;;;;;4999372;28;92043;-75
2023/12/31 18:26:11;;;;;;;6.82;2.40;;;;;;;;;;5007873;28;92118;-75
2023/12/31 18:28:38;;;;;;;7.47;2.67;;;;;;;;;;5004677;28;92024;-74
2023/12/31 18:31:05;;;;;;;13.05;3.25;;;;;;;;;;5013760;28;91772;-75
2023/12/31 18:33:31;;;;;;;6.43;2.28;;;;;;;;;;5003147;28;91907;-74
2023/12/31 18:35:58;;;;;;;15.75;3.92;;;;;;;;;;5017954;28;92276;-74
2023/12/31 18:38:24;;;;;;;9.98;3.45;;;;;;;;;;5009197;28;92020;-75
2023/12/31 18:40:52;;;;;;;8.50;2.67;;;;;;;;;;4999241;28;92015;-75
2023/12/31 18:43:18;;;;;;;10.23;2.42;;;;;;;;;;4999796;28;91992;-75
2023/12/31 18:45:45;;;;;;;7.47;3.05;;;;;;;;;;5000680;28;92142;-75
2023/12/31 18:48:11;;;;;;;12.25;3.53;;;;;;;;;;5013083;28;92999;-74
2023/12/31 18:50:38;;;;;;;8.07;2.70;;;;;;;;;;5013333;28;91958;-75
2023/12/31 18:53:04;;;;;;;6.45;2.33;;;;;;;;;;5006179;28;92586;-75
2023/12/31 18:55:31;;;;;;;7.38;3.03;;;;;;;;;;5005930;28;92383;-74
2023/12/31 18:57:58;;;;;;;7.70;2.33;;;;;;;;;;5009343;28;91999;-75
2023/12/31 19:00:25;;;;;;;5.53;2.60;;;;;;;;;;4999105;28;92296;-74
2023/12/31 19:02:52;;;;;;;7.40;2.67;;;;;;;;;;5007252;28;92319;-75
2023/12/31 19:05:18;;;;;;;6.13;2.53;;;;;;;;;;5007768;28;91909;-74
2023/12/31 19:07:45;;;;;;;9.50;3.15;;;;;;;;;;5011888;28;94114;-75
2023/12/31 19:10:12;;;;;;;6.15;2.42;;;;;;;;;;5004605;28;91656;-74
2023/12/31 19:12:38;;;;;;;9.45;3.10;;;;;;;;;;4998104;28;93433;-75
2023/12/31 19:15:06;;;;;;;6.50;2.45;;;;;;;;;;5005373;28;92962;-74
2023/12/31 19:17:33;;;;;;;6.32;2.45;;;;;;;;;;5009336;28;91944;-74
2023/12/31 19:19:59;;;;;;;8.07;2.70;;;;;;;;;;5007949;28;93032;-75
2023/12/31 19:22:26;;;;;;;6.50;2.53;;;;;;;;;;5003053;28;91965;-75
2023/12/31 19:24:53;;;;;;;7.47;3.13;;;;;;;;;;5006400;28;91958;-75
2023/12/31 19:27:19;;;;;;;9.82;3.63;;;;;;;;;;5014210;28;93884;-75
2023/12/31 19:29:46;;;;;;;5.88;2.85;;;;;;;;;;5018876;28;92204;-75
2023/12/31 19:32:12;;;;;;;9.48;3.08;;;;;;;;;;5004514;28;91806;-75
2023/12/31 19:34:42;;;;;;;8.20;2.60;;;;;;;;;;5011551;28;92883;-75
2023/12/31 19:37:10;;;;;;;5.70;2.30;;;;;;;;;;4997489;28;91945;-75
2023/12/31 19:39:36;;;;;;;6.72;2.70;;;;;;;;;;5021708;28;91869;-75
2023/12/31 19:42:03;;;;;;;8.68;2.53;;;;;;;;;;5018789;28;91937;-74
2023/12/31 19:44:29;;;;;;;9.27;2.72;;;;;;;;;;5018861;28;91957;-74
2023/12/31 19:47:03;;;;;;;10.93;3.13;;;;;;;;;;5018889;28;92816;-75
2023/12/31 19:49:29;;;;;;;5.20;2.90;;;;;;;;;;5014408;28;92231;-74
2023/12/31 19:51:58;;;;;;;5.65;2.88;;;;;;;;;;4998792;28;91975;-74
2023/12/31 19:54:24;;;;;;;8.77;2.72;;;;;;;;;;5000597;28;92207;-75
2023/12/31 19:56:51;;;;;;;3.58;2.25;;;;;;;;;;5002687;28;92216;-75
2023/12/31 19:59:18;;;;;;;8.35;2.95;;;;;;;;;;5003620;28;92162;-75
2023/12/31 20:01:45;;;;;;;9.30;2.88;;;;;;;;;;5005330;28;94997;-75
2023/12/31 20:04:11;;;;;;;12.07;3.03;;;;;;;;;;5000935;28;92503;-74
2023/12/31 20:06:38;;;;;;;6.55;2.80;;;;;;;;;;4996688;28;94308;-74
2023/12/31 20:09:06;;;;;;;8.38;3.42;;;;;;;;;;5002744;28;91974;-74
2023/12/31 20:11:33;;;;;;;7.72;2.33;;;;;;;;;;5003253;28;92472;-75
2023/12/31 20:13:59;;;;;;;7.60;3.03;;;;;;;;;;5004089;28;92067;-75
2023/12/31 20:16:26;;;;;;;7.82;2.40;;;;;;;;;;5010737;28;92145;-75
2023/12/31 20:18:53;;;;;;;8.73;3.13;;;;;;;;;;5000998;28;92191;-75
2023/12/31 20:21:20;;;;;;;4.22;2.25;;;;;;;;;;5003278;28;92184;-74
2023/12/31 20:23:46;;;;;;;12.00;2.97;;;;;;;;;;5001010;28;91924;-75
2023/12/31 20:26:12;;;;;;;7.25;3.15;;;;;;;;;;5005719;28;92075;-74
2023/12/31 20:28:40;;;;;;;5.18;2.45;;;;;;;;;;5017818;28;92168;-75
2023/12/31 20:31:06;;;;;;;4.32;2.38;;;;;;;;;;5011207;28;91912;-74
2023/12/31 20:33:33;;;;;;;5.05;2.97;;;;;;;;;;5010380;28;92914;-75
2023/12/31 20:36:03;;;;;;;7.95;2.90;;;;;;;;;;5016540;28;92365;-74
2023/12/31 20:38:33;;;;;;;7.28;2.22;;;;;;;;;;5016890;28;91879;-74
2023/12/31 20:40:59;;;;;;;6.07;2.58;;;;;;;;;;5016951;28;92556;-74
2023/12/31 20:43:26;;;;;;;9.18;2.42;;;;;;;;;;5009694;28;92159;-75
2023/12/31 20:45:53;;;;;;;7.90;2.17;;;;;;;;;;5013114;28;92116;-75
2023/12/31 20:48:20;;;;;;;4.97;2.08;;;;;;;;;;5016153;28;92009;-75
2023/12/31 20:50:48;;;;;;;7.70;2.78;;;;;;;;;;5003644;28;91917;-75
2023/12/31 20:53:16;;;;;;;6.03;2.30;;;;;;;;;;4997268;28;92056;-74
2023/12/31 20:55:47;;;;;;;6.35;2.55;;;;;;;;;;5011465;28;91997;-75
2023/12/31 20:58:16;;;;;;;5.40;2.13;;;;;;;;;;4998718;28;91998;-75
2023/12/31 21:00:44;;;;;;;6.82;2.65;;;;;;;;;;5002415;28;91973;-75
2023/12/31 21:03:11;;;;;;;4.10;1.95;;;;;;;;;;5003063;28;91986;-75
2023/12/31 21:05:38;;;;;;;4.57;2.38;;;;;;;;;;4999894;28;92142;-74
2023/12/31 21:08:05;;;;;;;4.05;2.20;;;;;;;;;;5004798;28;92010;-75
2023/12/31 21:10:32;;;;;;;7.30;2.38;;;;;;;;;;5004297;28;92035;-75
2023/12/31 21:12:58;;;;;;;7.75;2.22;;;;;;;;;;4997174;28;93111;-74
2023/12/31 21:15:25;;;;;;;3.55;1.95;;;;;;;;;;5011161;28;92143;-75
2023/12/31 21:17:52;;;;;;;10.05;2.33;;;;;;;;;;5010026;28;92282;-74
2023/12/31 21:20:19;;;;;;;4.03;2.03;;;;;;;;;;5004380;28;92664;-74
2023/12/31 21:22:46;;;;;;;3.38;2.40;;;;;;;;;;5009041;28;92247;-75
2023/12/31 21:25:12;;;;;;;7.40;2.53;;;;;;;;;;4998731;28;91897;-75
2023/12/31 21:27:39;;;;;;;3.75;2.17;;;;;;;;;;4999664;28;92967;-74
2023/12/31 21:30:05;;;;;;;3.15;2.03;;;;;;;;;;5009004;28;92215;-74
2023/12/31 21:32:32;;;;;;;4.80;1.90;;;;;;;;;;5010676;28;92976;-75
2023/12/31 21:34:58;;;;;;;4.15;2.08;;;;;;;;;;4996703;28;92377;-74
2023/12/31 21:37:25;;;;;;;2.05;1.85;;;;;;;;;;5013122;28;92087;-74
2023/12/31 21:39:52;;;;;;;6.55;2.20;;;;;;;;;;5016844;28;92826;-75
2023/12/31 21:42:18;;;;;;;3.90;2.00;;;;;;;;;;5015907;28;92868;-75
2023/12/31 21:44:44;;;;;;;5.35;2.33;;;;;;;;;;5015340;28;92124;-74
2023/12/31 21:47:11;;;;;;;5.22;2.20;;;;;;;;;;5014949;28;92019;-75
2023/12/31 21:49:37;;;;;;;7.63;2.15;;;;;;;;;;5000085;28;91848;-75
2023/12/31 21:52:04;;;;;;;7.07;2.50;;;;;;;;;;4994376;28;93847;-74
2023/12/31 21:54:31;;;;;;;6.65;2.28;;;;;;;;;;5003501;28;91916;-75
2023/12/31 21:56:57;;;;;;;4.15;2.05;;;;;;;;;;4998571;28;92152;-75
2023/12/31 21:59:30;;;;;;;5.55;2.20;;;;;;;;;;5006957;28;92077;-74
2023/12/31 22:01:57;;;;;;;3.10;1.85;;;;;;;;;;5004676;28;92053;-74
2023/12/31 22:04:23;;;;;;;5.18;2.40;;;;;;;;;;5009058;28;92061;-74
2023/12/31 22:06:50;;;;;;;4.22;2.42;;;;;;;;;;5001607;28;91900;-74
2023/12/31 22:09:16;;;;;;;4.68;2.17;;;;;;;;;;4995665;28;92270;-74
2023/12/31 22:11:43;;;;;;;4.15;2.10;;;;;;;;;;5005999;28;91851;-74
2023/12/31 22:14:09;;;;;;;9.90;2.65;;;;;;;;;;5013692;28;92488;-74
2023/12/31 22:16:36;;;;;;;5.72;1.85;;;;;;;;;;5006037;28;92277;-74
2023/12/31 22:19:03;;;;;;;3.15;2.08;;;;;;;;;;5005095;28;91698;-74
2023/12/31 22:21:29;;;;;;;4.13;2.10;;;;;;;;;;5007126;28;92242;-75
2023/12/31 22:23:56;;;;;;;4.35;1.85;;;;;;;;;;5008286;28;92017;-75
2023/12/31 22:26:23;;;;;;;4.47;2.38;;;;;;;;;;4995696;28;92059;-74
2023/12/31 22:28:49;;;;;;;5.13;1.65;;;;;;;;;;4995627;28;91917;-74
2023/12/31 22:31:16;;;;;;;4.85;2.45;;;;;;;;;;5003077;28;93620;-75
2023/12/31 22:33:42;;;;;;;5.82;2.35;;;;;;;;;;5018563;28;91938;-75
2023/12/31 22:36:09;;;;;;;3.30;2.20;;;;;;;;;;5009538;28;91954;-75
2023/12/31 22:38:35;;;;;;;2.50;2.25;;;;;;;;;;5008161;28;92913;-75
2023/12/31 22:41:02;;;;;;;5.82;2.70;;;;;;;;;;5010941;28;92247;-74
2023/12/31 22:43:29;;;;;;;6.13;2.97;;;;;;;;;;4994277;28;93468;-75
2023/12/31 22:45:55;;;;;;;7.45;2.78;;;;;;;;;;4993333;28;93102;-75
2023/12/31 22:48:22;;;;;;;3.47;2.17;;;;;;;;;;4996027;28;92214;-75
2023/12/31 22:50:48;;;;;;;6.20;2.60;;;;;;;;;;4995666;28;91925;-75
2023/12/31 22:53:15;;;;;;;7.25;3.13;;;;;;;;;;4998433;28;92024;-75
2023/12/31 22:55:42;;;;;;;5.47;1.95;;;;;;;;;;5009163;28;91917;-75
2023/12/31 22:58:08;;;;;;;5.60;2.60;;;;;;;;;;4996306;28;92747;-75
2023/12/31 23:00:34;;;;;;;6.88;2.53;;;;;;;;;;5001313;28;92176;-75
2023/12/31 23:03:02;;;;;;;5.57;2.58;;;;;;;;;;5002681;28;92004;-75
2023/12/31 23:05:28;;;;;;;4.40;2.42;;;;;;;;;;4990925;28;94493;-75
2023/12/31 23:07:59;;;;;;;6.45;3.00;;;;;;;;;;4998873;28;92203;-75
2023/12/31 23:10:26;;;;;;;8.43;4.22;;;;;;;;;;4998747;28;92043;-75
2023/12/31 23:12:52;;;;;;;9.48;4.10;;;;;;;;;;5012113;28;92720;-75
2023/12/31 23:15:19;;;;;;;10.77;5.72;;;;;;;;;;5002251;28;92096;-75
2023/12/31 23:17:45;;;;;;;12.23;5.72;;;;;;;;;;4998825;28;95676;-75
2023/12/31 23:20:12;;;;;;;10.85;6.20;;;;;;;;;;4998767;28;91796;-74
2023/12/31 23:22:39;;;;;;;15.05;8.63;;;;;;;;;;4996617;28;93176;-75
2023/12/31 23:25:06;;;;;;;19.00;8.98;;;;;;;;;;4997723;28;93231;-75
2023/12/31 23:27:32;;;;;;;14.52;7.95;;;;;;;;;;5011056;28;91875;-75
2023/12/31 23:29:59;;;;;;;13.20;7.45;;;;;;;;;;5009646;28;91986;-75
2023/12/31 23:32:26;;;;;;;18.52;8.52;;;;;;;;;;5014779;28;93850;-75
2023/12/31 23:34:52;;;;;;;15.95;9.02;;;;;;;;;;4998913;28;91948;-75
2023/12/31 23:37:19;;;;;;;21.52;10.15;;;;;;;;;;5016984;28;92044;-75
2023/12/31 23:39:46;;;;;;;15.48;7.47;;;;;;;;;;5010532;28;91765;-75
2023/12/31 23:42:13;;;;;;;14.10;7.88;;;;;;;;;;5011051;28;93160;-75
2023/12/31 23:44:39;;;;;;;15.48;8.10;;;;;;;;;;5004704;28;92143;-75
2023/12/31 23:47:06;;;;;;;16.70;8.05;;;;;;;;;;5018614;28;92235;-75
2023/12/31 23:49:33;;;;;;;15.52;8.07;;;;;;;;;;5017968;28;91998;-74
2023/12/31 23:51:59;;;;;;;14.25;7.72;;;;;;;;;;5014638;28;92129;-75
2023/12/31 23:54:26;;;;;;;11.68;6.97;;;;;;;;;;5003693;28;93758;-75
2023/12/31 23:56:52;;;;;;;20.52;8.55;;;;;;;;;;4999278;28;92110;-75
2023/12/31 23:59:19;;;;;;;15.02;8.05;;;;;;;;;;5020115;28;93099;-75
